sensor_id;sensor_type;location;lat;lon;timestamp;pressure;altitude;pressure_sealevel;temperature;humidity
60228;BME280;46091;46.512;6.626;2023-03-01T06:49:47;96991.91;;;3.20;59.33
60228;BME280;46091;46.512;6.626;2023-03-01T06:51:50;96997.16;;;3.48;58.75
60228;BME280;46091;46.512;6.626;2023-03-01T06:53:53;96983.88;;;3.69;58.49
60228;BME280;46091;46.512;6.626;2023-03-01T06:55:57;96985.00;;;3.84;58.10
60228;BME280;46091;46.512;6.626;2023-03-01T06:58:02;96987.81;;;4.00;58.04
60228;BME280;46091;46.512;6.626;2023-03-01T07:00:07;96983.28;;;4.20;57.79
60228;BME280;46091;46.512;6.626;2023-03-01T07:02:10;96985.91;;;4.38;57.49
60228;BME280;46091;46.512;6.626;2023-03-01T07:04:13;96979.25;;;4.44;57.23
60228;BME280;46091;46.512;6.626;2023-03-01T07:06:18;96984.03;;;4.48;57.14
60228;BME280;46091;46.512;6.626;2023-03-01T07:08:21;96980.81;;;4.54;57.24
60228;BME280;46091;46.512;6.626;2023-03-01T07:10:24;96984.63;;;4.60;57.10
60228;BME280;46091;46.512;6.626;2023-03-01T07:12:27;96980.88;;;4.62;56.98
60228;BME280;46091;46.512;6.626;2023-03-01T07:14:30;96983.19;;;4.65;56.85
60228;BME280;46091;46.512;6.626;2023-03-01T07:16:33;96976.38;;;4.73;56.92
60228;BME280;46091;46.512;6.626;2023-03-01T07:18:36;96976.75;;;4.78;56.63
60228;BME280;46091;46.512;6.626;2023-03-01T07:20:39;96984.13;;;4.82;56.71
60228;BME280;46091;46.512;6.626;2023-03-01T07:22:43;96969.25;;;4.83;56.55
60228;BME280;46091;46.512;6.626;2023-03-01T07:24:46;96969.25;;;4.83;56.34
60228;BME280;46091;46.512;6.626;2023-03-01T07:26:49;96970.38;;;4.80;56.22
60228;BME280;46091;46.512;6.626;2023-03-01T07:28:53;96973.16;;;4.79;55.91
60228;BME280;46091;46.512;6.626;2023-03-01T07:31:00;96965.97;;;4.81;56.19
60228;BME280;46091;46.512;6.626;2023-03-01T07:33:04;96972.84;;;4.82;56.05
60228;BME280;46091;46.512;6.626;2023-03-01T07:35:07;96974.13;;;4.78;55.93
60228;BME280;46091;46.512;6.626;2023-03-01T07:37:10;96974.56;;;4.73;55.96
60228;BME280;46091;46.512;6.626;2023-03-01T07:39:15;96975.69;;;4.71;55.76
60228;BME280;46091;46.512;6.626;2023-03-01T07:41:20;96967.03;;;4.70;55.82
60228;BME280;46091;46.512;6.626;2023-03-01T07:43:23;96966.44;;;4.76;55.64
60228;BME280;46091;46.512;6.626;2023-03-01T07:45:26;96963.28;;;4.73;55.74
60228;BME280;46091;46.512;6.626;2023-03-01T07:47:29;96963.28;;;4.73;55.62
60228;BME280;46091;46.512;6.626;2023-03-01T07:49:32;96962.00;;;4.77;55.71
60228;BME280;46091;46.512;6.626;2023-03-01T07:51:35;96961.31;;;4.75;55.37
60228;BME280;46091;46.512;6.626;2023-03-01T07:53:38;96952.50;;;4.76;55.36
60228;BME280;46091;46.512;6.626;2023-03-01T07:55:42;96965.72;;;4.74;55.07
60228;BME280;46091;46.512;6.626;2023-03-01T07:57:45;96951.81;;;4.74;55.33
60228;BME280;46091;46.512;6.626;2023-03-01T07:59:48;96960.22;;;4.77;54.94
60228;BME280;46091;46.512;6.626;2023-03-01T08:01:51;96957.06;;;4.74;55.12
60228;BME280;46091;46.512;6.626;2023-03-01T08:03:54;96951.97;;;4.72;55.13
60228;BME280;46091;46.512;6.626;2023-03-01T08:05:59;96954.91;;;4.69;55.21
60228;BME280;46091;46.512;6.626;2023-03-01T08:08:03;96959.16;;;4.70;55.10
60228;BME280;46091;46.512;6.626;2023-03-01T08:10:07;96964.09;;;4.73;55.01
60228;BME280;46091;46.512;6.626;2023-03-01T08:12:12;96959.00;;;4.72;54.82
60228;BME280;46091;46.512;6.626;2023-03-01T08:14:17;96957.88;;;4.74;54.66
60228;BME280;46091;46.512;6.626;2023-03-01T08:16:20;96957.75;;;4.76;54.55
60228;BME280;46091;46.512;6.626;2023-03-01T08:18:25;96953.00;;;4.79;54.90
60228;BME280;46091;46.512;6.626;2023-03-01T08:20:27;96962.59;;;4.88;54.60
60228;BME280;46091;46.512;6.626;2023-03-01T08:22:30;96955.38;;;4.90;54.46
60228;BME280;46091;46.512;6.626;2023-03-01T08:24:33;96958.66;;;4.92;54.38
60228;BME280;46091;46.512;6.626;2023-03-01T08:26:36;96962.47;;;4.98;54.46
60228;BME280;46091;46.512;6.626;2023-03-01T08:28:41;96956.94;;;5.01;54.49
60228;BME280;46091;46.512;6.626;2023-03-01T08:30:44;96961.19;;;5.02;54.17
60228;BME280;46091;46.512;6.626;2023-03-01T08:32:47;96969.38;;;4.99;54.04
60228;BME280;46091;46.512;6.626;2023-03-01T08:34:50;96959.84;;;4.98;54.19
60228;BME280;46091;46.512;6.626;2023-03-01T08:36:53;96957.59;;;5.03;54.32
60228;BME280;46091;46.512;6.626;2023-03-01T08:38:56;96955.19;;;5.10;54.29
60228;BME280;46091;46.512;6.626;2023-03-01T08:41:00;96951.78;;;5.17;54.13
60228;BME280;46091;46.512;6.626;2023-03-01T08:43:03;96959.63;;;5.17;53.81
60228;BME280;46091;46.512;6.626;2023-03-01T08:45:09;96957.00;;;5.17;53.94
60228;BME280;46091;46.512;6.626;2023-03-01T08:47:12;96948.69;;;5.22;53.88
60228;BME280;46091;46.512;6.626;2023-03-01T08:49:17;96942.16;;;5.26;53.79
60228;BME280;46091;46.512;6.626;2023-03-01T08:51:21;96947.56;;;5.24;53.74
60228;BME280;46091;46.512;6.626;2023-03-01T08:53:24;96951.50;;;5.29;53.88
60228;BME280;46091;46.512;6.626;2023-03-01T08:55:27;96943.31;;;5.32;53.72
60228;BME280;46091;46.512;6.626;2023-03-01T08:57:30;96943.69;;;5.37;53.68
60228;BME280;46091;46.512;6.626;2023-03-01T08:59:33;96946.81;;;5.40;53.60
60228;BME280;46091;46.512;6.626;2023-03-01T09:01:40;96941.41;;;5.42;53.60
60228;BME280;46091;46.512;6.626;2023-03-01T09:03:45;96938.31;;;5.46;53.61
60228;BME280;46091;46.512;6.626;2023-03-01T09:05:48;96941.44;;;5.50;53.46
60228;BME280;46091;46.512;6.626;2023-03-01T09:07:51;96931.44;;;5.53;53.20
60228;BME280;46091;46.512;6.626;2023-03-01T09:09:55;96940.16;;;5.54;53.19
60228;BME280;46091;46.512;6.626;2023-03-01T09:11:57;96937.84;;;5.51;52.97
60228;BME280;46091;46.512;6.626;2023-03-01T09:14:00;96937.19;;;5.49;53.18
60228;BME280;46091;46.512;6.626;2023-03-01T09:16:08;96941.25;;;5.43;53.02
60228;BME280;46091;46.512;6.626;2023-03-01T09:18:12;96933.25;;;5.45;53.22
60228;BME280;46091;46.512;6.626;2023-03-01T09:20:16;96938.16;;;5.48;53.02
60228;BME280;46091;46.512;6.626;2023-03-01T09:22:19;96942.09;;;5.44;52.77
60228;BME280;46091;46.512;6.626;2023-03-01T09:24:23;96938.94;;;5.40;52.79
60228;BME280;46091;46.512;6.626;2023-03-01T09:26:29;96938.44;;;5.37;52.74
60228;BME280;46091;46.512;6.626;2023-03-01T09:28:32;96940.84;;;5.30;52.79
60228;BME280;46091;46.512;6.626;2023-03-01T09:30:35;96939.06;;;5.31;52.69
60228;BME280;46091;46.512;6.626;2023-03-01T09:32:38;96937.13;;;5.33;52.92
60228;BME280;46091;46.512;6.626;2023-03-01T09:34:45;96940.75;;;5.40;52.87
60228;BME280;46091;46.512;6.626;2023-03-01T09:37:06;96935.19;;;5.43;52.66
60228;BME280;46091;46.512;6.626;2023-03-01T09:39:09;96936.69;;;5.45;52.54
60228;BME280;46091;46.512;6.626;2023-03-01T09:41:44;96945.06;;;5.49;52.53
60228;BME280;46091;46.512;6.626;2023-03-01T09:43:50;96934.25;;;5.52;52.65
60228;BME280;46091;46.512;6.626;2023-03-01T09:46:00;96930.34;;;5.56;52.30
60228;BME280;46091;46.512;6.626;2023-03-01T09:48:11;96933.25;;;5.53;52.12
60228;BME280;46091;46.512;6.626;2023-03-01T09:50:19;96939.19;;;5.55;52.21
60228;BME280;46091;46.512;6.626;2023-03-01T09:52:28;96927.56;;;5.58;52.46
60228;BME280;46091;46.512;6.626;2023-03-01T09:54:33;96928.72;;;5.63;52.13
60228;BME280;46091;46.512;6.626;2023-03-01T09:56:39;96936.94;;;5.68;51.97
60228;BME280;46091;46.512;6.626;2023-03-01T09:58:48;96936.44;;;5.73;51.94
60228;BME280;46091;46.512;6.626;2023-03-01T10:00:56;96931.00;;;5.66;51.88
60228;BME280;46091;46.512;6.626;2023-03-01T10:03:11;96933.81;;;5.73;51.76
60228;BME280;46091;46.512;6.626;2023-03-01T10:05:49;96934.16;;;5.70;51.65
60228;BME280;46091;46.512;6.626;2023-03-01T10:08:03;96932.69;;;5.67;51.72
60228;BME280;46091;46.512;6.626;2023-03-01T10:10:16;96920.84;;;5.63;51.98
60228;BME280;46091;46.512;6.626;2023-03-01T10:12:29;96921.81;;;5.62;51.49
60228;BME280;46091;46.512;6.626;2023-03-01T10:14:36;96920.50;;;5.58;51.65
60228;BME280;46091;46.512;6.626;2023-03-01T10:16:47;96918.84;;;5.49;51.56
60228;BME280;46091;46.512;6.626;2023-03-01T10:18:53;96918.00;;;5.48;51.85
60228;BME280;46091;46.512;6.626;2023-03-01T10:21:01;96919.97;;;5.46;51.49
60228;BME280;46091;46.512;6.626;2023-03-01T10:23:04;96912.75;;;5.48;51.55
60228;BME280;46091;46.512;6.626;2023-03-01T10:25:12;96913.44;;;5.50;51.41
60228;BME280;46091;46.512;6.626;2023-03-01T10:27:20;96914.41;;;5.49;51.29
60228;BME280;46091;46.512;6.626;2023-03-01T10:29:28;96912.44;;;5.51;51.12
60228;BME280;46091;46.512;6.626;2023-03-01T10:31:40;96903.59;;;5.52;51.04
60228;BME280;46091;46.512;6.626;2023-03-01T10:33:44;96906.56;;;5.58;51.16
60228;BME280;46091;46.512;6.626;2023-03-01T10:35:49;96900.03;;;5.62;51.28
60228;BME280;46091;46.512;6.626;2023-03-01T10:38:09;96904.00;;;5.74;51.15
60228;BME280;46091;46.512;6.626;2023-03-01T10:40:13;96895.31;;;5.81;50.99
60228;BME280;46091;46.512;6.626;2023-03-01T10:42:22;96897.28;;;5.88;51.01
60228;BME280;46091;46.512;6.626;2023-03-01T10:44:43;96898.16;;;5.96;50.98
60228;BME280;46091;46.512;6.626;2023-03-01T10:46:59;96902.94;;;6.01;50.82
60228;BME280;46091;46.512;6.626;2023-03-01T10:49:10;96898.03;;;6.06;50.58
60228;BME280;46091;46.512;6.626;2023-03-01T10:51:18;96896.03;;;6.08;50.82
60228;BME280;46091;46.512;6.626;2023-03-01T10:53:27;96893.75;;;6.05;50.68
60228;BME280;46091;46.512;6.626;2023-03-01T10:55:33;96896.19;;;5.98;50.79
60228;BME280;46091;46.512;6.626;2023-03-01T10:57:39;96895.72;;;5.95;50.65
60228;BME280;46091;46.512;6.626;2023-03-01T10:59:43;96895.72;;;5.95;50.69
60228;BME280;46091;46.512;6.626;2023-03-01T11:02:01;96894.38;;;5.99;50.65
60228;BME280;46091;46.512;6.626;2023-03-01T11:04:15;96895.53;;;5.96;50.58
60228;BME280;46091;46.512;6.626;2023-03-01T11:06:21;96895.06;;;6.01;50.28
60228;BME280;46091;46.512;6.626;2023-03-01T11:08:42;96891.09;;;5.97;50.16
60228;BME280;46091;46.512;6.626;2023-03-01T11:10:46;96886.19;;;5.94;50.31
60228;BME280;46091;46.512;6.626;2023-03-01T11:12:50;96882.91;;;6.00;50.35
60228;BME280;46091;46.512;6.626;2023-03-01T11:14:54;96882.91;;;6.00;50.28
60228;BME280;46091;46.512;6.626;2023-03-01T11:17:02;96877.19;;;6.04;50.24
60228;BME280;46091;46.512;6.626;2023-03-01T11:19:17;96878.16;;;6.11;50.23
60228;BME280;46091;46.512;6.626;2023-03-01T11:21:20;96873.44;;;6.15;50.26
60228;BME280;46091;46.512;6.626;2023-03-01T11:23:23;96881.63;;;6.20;50.14
60228;BME280;46091;46.512;6.626;2023-03-01T11:25:32;96875.72;;;6.18;49.87
60228;BME280;46091;46.512;6.626;2023-03-01T11:27:38;96870.78;;;6.07;49.74
60228;BME280;46091;46.512;6.626;2023-03-01T11:29:45;96866.69;;;6.04;50.11
60228;BME280;46091;46.512;6.626;2023-03-01T11:31:54;96870.16;;;6.13;50.20
60228;BME280;46091;46.512;6.626;2023-03-01T11:34:06;96869.66;;;6.26;50.15
60228;BME280;46091;46.512;6.626;2023-03-01T11:36:16;96868.81;;;6.33;49.78
60228;BME280;46091;46.512;6.626;2023-03-01T11:38:25;96865.88;;;6.36;49.89
60228;BME280;46091;46.512;6.626;2023-03-01T11:40:33;96866.03;;;6.43;49.78
60228;BME280;46091;46.512;6.626;2023-03-01T11:42:46;96857.97;;;6.45;49.68
60228;BME280;46091;46.512;6.626;2023-03-01T11:44:54;96856.69;;;6.40;49.62
60228;BME280;46091;46.512;6.626;2023-03-01T11:47:12;96864.56;;;6.49;49.58
60228;BME280;46091;46.512;6.626;2023-03-01T11:49:42;96866.84;;;6.60;49.60
60228;BME280;46091;46.512;6.626;2023-03-01T11:51:55;96858.31;;;6.58;49.51
60228;BME280;46091;46.512;6.626;2023-03-01T11:54:23;96863.22;;;6.53;49.36
60228;BME280;46091;46.512;6.626;2023-03-01T11:56:34;96856.34;;;6.52;49.50
60228;BME280;46091;46.512;6.626;2023-03-01T11:59:09;96845.53;;;6.47;49.24
60228;BME280;46091;46.512;6.626;2023-03-01T12:01:23;96841.91;;;6.48;49.56
60228;BME280;46091;46.512;6.626;2023-03-01T12:03:33;96845.19;;;6.58;49.33
60228;BME280;46091;46.512;6.626;2023-03-01T12:08:17;96839.06;;;6.74;49.28
60228;BME280;46091;46.512;6.626;2023-03-01T12:10:27;96835.44;;;6.83;49.30
60228;BME280;46091;46.512;6.626;2023-03-01T12:12:40;96843.63;;;6.88;49.15
60228;BME280;46091;46.512;6.626;2023-03-01T12:17:21;96832.63;;;6.92;48.84
60228;BME280;46091;46.512;6.626;2023-03-01T12:19:36;96838.06;;;6.83;48.76
60228;BME280;46091;46.512;6.626;2023-03-01T12:21:59;96832.00;;;6.82;48.97
60228;BME280;46091;46.512;6.626;2023-03-01T12:24:31;96828.03;;;6.86;48.90
60228;BME280;46091;46.512;6.626;2023-03-01T12:26:45;96825.72;;;6.91;48.95
60228;BME280;46091;46.512;6.626;2023-03-01T12:29:05;96833.09;;;6.88;48.69
60228;BME280;46091;46.512;6.626;2023-03-01T12:31:32;96830.47;;;6.88;48.75
60228;BME280;46091;46.512;6.626;2023-03-01T12:33:45;96821.13;;;6.93;48.89
60228;BME280;46091;46.512;6.626;2023-03-01T12:36:12;96824.03;;;6.98;48.64
60228;BME280;46091;46.512;6.626;2023-03-01T12:38:32;96820.09;;;7.03;48.50
60228;BME280;46091;46.512;6.626;2023-03-01T12:41:21;96815.31;;;7.06;48.60
60228;BME280;46091;46.512;6.626;2023-03-01T12:43:39;96816.50;;;6.95;48.44
60228;BME280;46091;46.512;6.626;2023-03-01T12:45:54;96818.16;;;6.88;48.57
60228;BME280;46091;46.512;6.626;2023-03-01T12:48:12;96810.44;;;6.87;48.60
60228;BME280;46091;46.512;6.626;2023-03-01T12:50:21;96808.97;;;6.84;48.31
60228;BME280;46091;46.512;6.626;2023-03-01T12:52:33;96807.00;;;6.86;48.37
60228;BME280;46091;46.512;6.626;2023-03-01T12:54:38;96808.63;;;6.87;48.19
60228;BME280;46091;46.512;6.626;2023-03-01T12:56:42;96808.63;;;6.87;48.33
60228;BME280;46091;46.512;6.626;2023-03-01T12:59:00;96809.13;;;6.91;48.39
60228;BME280;46091;46.512;6.626;2023-03-01T13:01:14;96809.47;;;6.88;48.33
60228;BME280;46091;46.512;6.626;2023-03-01T13:03:26;96811.28;;;6.79;48.21
60228;BME280;46091;46.512;6.626;2023-03-01T13:05:39;96805.38;;;6.77;48.25
60228;BME280;46091;46.512;6.626;2023-03-01T13:07:50;96804.09;;;6.73;48.23
60228;BME280;46091;46.512;6.626;2023-03-01T13:10:02;96799.47;;;6.83;48.48
60228;BME280;46091;46.512;6.626;2023-03-01T13:14:53;96798.44;;;6.92;48.06
60228;BME280;46091;46.512;6.626;2023-03-01T13:16:58;96801.38;;;6.97;48.22
60228;BME280;46091;46.512;6.626;2023-03-01T13:19:11;96803.00;;;6.98;47.90
60228;BME280;46091;46.512;6.626;2023-03-01T13:21:29;96802.38;;;6.96;48.07
60228;BME280;46091;46.512;6.626;2023-03-01T13:23:35;96798.22;;;7.02;48.05
60228;BME280;46091;46.512;6.626;2023-03-01T13:26:04;96807.91;;;7.10;48.09
60228;BME280;46091;46.512;6.626;2023-03-01T13:28:37;96800.19;;;7.08;47.87
60228;BME280;46091;46.512;6.626;2023-03-01T13:30:42;96787.84;;;7.09;47.96
60228;BME280;46091;46.512;6.626;2023-03-01T13:32:47;96793.59;;;7.12;48.04
60228;BME280;46091;46.512;6.626;2023-03-01T13:34:55;96787.00;;;7.16;47.83
60228;BME280;46091;46.512;6.626;2023-03-01T13:37:09;96791.75;;;7.21;47.77
60228;BME280;46091;46.512;6.626;2023-03-01T13:39:28;96784.38;;;7.16;47.63
60228;BME280;46091;46.512;6.626;2023-03-01T13:41:54;96789.81;;;7.15;47.90
60228;BME280;46091;46.512;6.626;2023-03-01T13:43:59;96791.75;;;7.21;47.84
60228;BME280;46091;46.512;6.626;2023-03-01T13:46:08;96790.09;;;7.20;47.76
60228;BME280;46091;46.512;6.626;2023-03-01T13:48:22;96786.38;;;7.14;47.66
60228;BME280;46091;46.512;6.626;2023-03-01T13:50:29;96781.31;;;7.05;47.74
60228;BME280;46091;46.512;6.626;2023-03-01T13:52:38;96793.31;;;6.99;47.77
60228;BME280;46091;46.512;6.626;2023-03-01T13:54:42;96795.31;;;6.97;47.72
60228;BME280;46091;46.512;6.626;2023-03-01T13:56:45;96787.94;;;6.92;47.64
60228;BME280;46091;46.512;6.626;2023-03-01T13:58:50;96790.25;;;6.87;47.88
60228;BME280;46091;46.512;6.626;2023-03-01T14:00:56;96788.25;;;6.89;47.84
60228;BME280;46091;46.512;6.626;2023-03-01T14:03:04;96798.09;;;6.95;47.55
60228;BME280;46091;46.512;6.626;2023-03-01T14:05:10;96797.94;;;6.97;47.58
60228;BME280;46091;46.512;6.626;2023-03-01T14:07:19;96799.75;;;6.96;47.70
60228;BME280;46091;46.512;6.626;2023-03-01T14:09:24;96802.38;;;6.96;47.82
60228;BME280;46091;46.512;6.626;2023-03-01T14:11:54;96804.66;;;6.99;47.66
60228;BME280;46091;46.512;6.626;2023-03-01T14:14:32;96799.91;;;6.95;47.30
60228;BME280;46091;46.512;6.626;2023-03-01T14:16:46;96794.84;;;6.93;47.43
60228;BME280;46091;46.512;6.626;2023-03-01T14:19:01;96797.63;;;6.92;47.53
60228;BME280;46091;46.512;6.626;2023-03-01T14:21:14;96798.44;;;6.92;47.56
60228;BME280;46091;46.512;6.626;2023-03-01T14:23:21;96798.91;;;6.96;47.54
60228;BME280;46091;46.512;6.626;2023-03-01T14:25:27;96784.97;;;6.95;47.56
60228;BME280;46091;46.512;6.626;2023-03-01T14:27:33;96785.97;;;6.94;47.48
60228;BME280;46091;46.512;6.626;2023-03-01T14:29:39;96781.00;;;6.99;47.53
60228;BME280;46091;46.512;6.626;2023-03-01T14:31:42;96774.44;;;7.04;47.50
60228;BME280;46091;46.512;6.626;2023-03-01T14:33:55;96771.75;;;7.12;47.19
60228;BME280;46091;46.512;6.626;2023-03-01T14:36:00;96777.53;;;7.07;47.02
60228;BME280;46091;46.512;6.626;2023-03-01T14:38:04;96773.09;;;6.99;47.18
60228;BME280;46091;46.512;6.626;2023-03-01T14:40:23;96769.84;;;6.97;47.42
60228;BME280;46091;46.512;6.626;2023-03-01T14:42:28;96770.47;;;6.99;47.39
60228;BME280;46091;46.512;6.626;2023-03-01T14:44:34;96766.22;;;6.98;47.22
60228;BME280;46091;46.512;6.626;2023-03-01T14:46:41;96768.84;;;6.98;47.21
60228;BME280;46091;46.512;6.626;2023-03-01T14:48:47;96768.66;;;7.00;47.15
60228;BME280;46091;46.512;6.626;2023-03-01T14:50:51;96770.00;;;7.04;47.17
60228;BME280;46091;46.512;6.626;2023-03-01T14:52:55;96765.53;;;7.05;47.04
60228;BME280;46091;46.512;6.626;2023-03-01T14:55:02;96773.75;;;7.01;47.06
60228;BME280;46091;46.512;6.626;2023-03-01T14:57:14;96778.72;;;6.96;47.23
60228;BME280;46091;46.512;6.626;2023-03-01T14:59:24;96783.81;;;6.90;47.46
60228;BME280;46091;46.512;6.626;2023-03-01T15:01:27;96781.38;;;6.88;47.34
60228;BME280;46091;46.512;6.626;2023-03-01T15:03:34;96782.72;;;6.84;47.42
60228;BME280;46091;46.512;6.626;2023-03-01T15:05:42;96784.34;;;6.85;47.36
60228;BME280;46091;46.512;6.626;2023-03-01T15:07:46;96790.75;;;6.91;47.46
60228;BME280;46091;46.512;6.626;2023-03-01T15:09:51;96791.56;;;6.91;47.11
60228;BME280;46091;46.512;6.626;2023-03-01T15:11:56;96793.69;;;6.88;47.14
60228;BME280;46091;46.512;6.626;2023-03-01T15:13:59;96796.31;;;6.88;47.23
60228;BME280;46091;46.512;6.626;2023-03-01T15:16:07;96788.25;;;6.89;47.17
60228;BME280;46091;46.512;6.626;2023-03-01T15:18:18;96797.78;;;6.90;47.17
60228;BME280;46091;46.512;6.626;2023-03-01T15:20:23;96806.50;;;6.91;47.09
60228;BME280;46091;46.512;6.626;2023-03-01T15:22:27;96801.09;;;6.92;47.14
60228;BME280;46091;46.512;6.626;2023-03-01T15:24:30;96788.13;;;6.91;46.98
60228;BME280;46091;46.512;6.626;2023-03-01T15:26:37;96781.88;;;6.92;46.98
60228;BME280;46091;46.512;6.626;2023-03-01T15:28:49;96782.19;;;6.89;47.27
60228;BME280;46091;46.512;6.626;2023-03-01T15:30:56;96775.63;;;6.93;47.10
60228;BME280;46091;46.512;6.626;2023-03-01T15:33:34;96771.00;;;6.95;46.95
60228;BME280;46091;46.512;6.626;2023-03-01T15:35:41;96784.63;;;6.90;47.19
60228;BME280;46091;46.512;6.626;2023-03-01T15:37:47;96782.72;;;6.84;47.06
60228;BME280;46091;46.512;6.626;2023-03-01T15:39:53;96779.09;;;6.77;47.22
60228;BME280;46091;46.512;6.626;2023-03-01T15:41:56;96772.84;;;6.78;47.34
60228;BME280;46091;46.512;6.626;2023-03-01T15:44:14;96779.25;;;6.84;47.23
60228;BME280;46091;46.512;6.626;2023-03-01T15:46:24;96785.97;;;6.86;47.15
60228;BME280;46091;46.512;6.626;2023-03-01T15:48:27;96786.97;;;6.85;47.12
60228;BME280;46091;46.512;6.626;2023-03-01T15:50:33;96788.47;;;6.80;47.10
60228;BME280;46091;46.512;6.626;2023-03-01T15:52:42;96788.31;;;6.73;47.03
60228;BME280;46091;46.512;6.626;2023-03-01T15:54:45;96782.09;;;6.66;47.05
60228;BME280;46091;46.512;6.626;2023-03-01T15:56:48;96788.00;;;6.68;47.21
60228;BME280;46091;46.512;6.626;2023-03-01T15:58:52;96785.38;;;6.68;47.05
60228;BME280;46091;46.512;6.626;2023-03-01T16:00:57;96776.53;;;6.69;47.21
60228;BME280;46091;46.512;6.626;2023-03-01T16:03:03;96784.06;;;6.64;47.26
60228;BME280;46091;46.512;6.626;2023-03-01T16:05:13;96784.44;;;6.61;47.06
60228;BME280;46091;46.512;6.626;2023-03-01T16:07:18;96773.09;;;6.60;47.24
60228;BME280;46091;46.512;6.626;2023-03-01T16:09:22;96776.38;;;6.62;47.20
60228;BME280;46091;46.512;6.626;2023-03-01T16:11:25;96784.06;;;6.64;47.43
60228;BME280;46091;46.512;6.626;2023-03-01T16:13:29;96784.06;;;6.64;47.34
60228;BME280;46091;46.512;6.626;2023-03-01T16:15:33;96783.44;;;6.62;47.18
60228;BME280;46091;46.512;6.626;2023-03-01T16:17:38;96785.59;;;6.58;47.11
60228;BME280;46091;46.512;6.626;2023-03-01T16:19:41;96777.84;;;6.57;47.25
60228;BME280;46091;46.512;6.626;2023-03-01T16:21:44;96775.56;;;6.54;47.29
60228;BME280;46091;46.512;6.626;2023-03-01T16:23:48;96773.47;;;6.49;47.33
60228;BME280;46091;46.512;6.626;2023-03-01T16:25:51;96775.91;;;6.51;47.40
60228;BME280;46091;46.512;6.626;2023-03-01T16:27:54;96786.41;;;6.51;47.50
60228;BME280;46091;46.512;6.626;2023-03-01T16:30:00;96778.19;;;6.54;47.39
60228;BME280;46091;46.512;6.626;2023-03-01T16:32:03;96783.78;;;6.51;47.31
60228;BME280;46091;46.512;6.626;2023-03-01T16:34:08;96783.63;;;6.44;47.43
60228;BME280;46091;46.512;6.626;2023-03-01T16:36:12;96781.84;;;6.36;47.23
60228;BME280;46091;46.512;6.626;2023-03-01T16:38:15;96780.88;;;6.29;47.48
60228;BME280;46091;46.512;6.626;2023-03-01T16:40:20;96779.56;;;6.25;47.72
60228;BME280;46091;46.512;6.626;2023-03-01T16:42:24;96780.56;;;6.24;47.55
60228;BME280;46091;46.512;6.626;2023-03-01T16:44:26;96778.25;;;6.21;47.64
60228;BME280;46091;46.512;6.626;2023-03-01T16:46:29;96782.38;;;6.24;47.77
60228;BME280;46091;46.512;6.626;2023-03-01T16:48:32;96781.53;;;6.31;47.77
60228;BME280;46091;46.512;6.626;2023-03-01T16:50:36;96780.06;;;6.29;47.52
60228;BME280;46091;46.512;6.626;2023-03-01T16:52:39;96781.56;;;6.23;47.61
60228;BME280;46091;46.512;6.626;2023-03-01T16:54:42;96794.34;;;6.18;47.85
60228;BME280;46091;46.512;6.626;2023-03-01T16:56:45;96781.91;;;6.12;47.91
60228;BME280;46091;46.512;6.626;2023-03-01T16:58:48;96786.28;;;6.11;47.85
60228;BME280;46091;46.512;6.626;2023-03-01T17:00:51;96782.72;;;6.12;47.87
60228;BME280;46091;46.512;6.626;2023-03-01T17:02:54;96786.81;;;6.15;48.02
60228;BME280;46091;46.512;6.626;2023-03-01T17:04:57;96786.97;;;6.13;47.99
60228;BME280;46091;46.512;6.626;2023-03-01T17:07:02;96794.16;;;6.20;47.83
60228;BME280;46091;46.512;6.626;2023-03-01T17:09:05;96796.31;;;6.24;48.01
60228;BME280;46091;46.512;6.626;2023-03-01T17:11:09;96800.75;;;6.24;47.95
60228;BME280;46091;46.512;6.626;2023-03-01T17:13:12;96799.59;;;6.26;47.81
60228;BME280;46091;46.512;6.626;2023-03-01T17:15:15;96806.97;;;6.23;47.83
60228;BME280;46091;46.512;6.626;2023-03-01T17:17:18;96813.53;;;6.19;47.87
60228;BME280;46091;46.512;6.626;2023-03-01T17:19:21;96802.22;;;6.18;47.93
60228;BME280;46091;46.512;6.626;2023-03-01T17:21:24;96802.22;;;6.18;48.24
60228;BME280;46091;46.512;6.626;2023-03-01T17:23:29;96804.66;;;6.11;48.11
60228;BME280;46091;46.512;6.626;2023-03-01T17:25:32;96809.78;;;6.05;48.25
60228;BME280;46091;46.512;6.626;2023-03-01T17:27:36;96805.81;;;6.09;48.35
60228;BME280;46091;46.512;6.626;2023-03-01T17:29:39;96808.97;;;6.12;48.26
60228;BME280;46091;46.512;6.626;2023-03-01T17:31:42;96808.63;;;6.07;48.44
60228;BME280;46091;46.512;6.626;2023-03-01T17:33:45;96814.38;;;6.03;48.23
60228;BME280;46091;46.512;6.626;2023-03-01T17:35:49;96812.22;;;5.98;48.38
60228;BME280;46091;46.512;6.626;2023-03-01T17:37:52;96809.44;;;6.00;48.63
60228;BME280;46091;46.512;6.626;2023-03-01T17:39:56;96811.56;;;5.96;48.55
60228;BME280;46091;46.512;6.626;2023-03-01T17:41:59;96811.72;;;5.95;48.67
60228;BME280;46091;46.512;6.626;2023-03-01T17:44:02;96819.13;;;5.91;48.84
60228;BME280;46091;46.512;6.626;2023-03-01T17:46:05;96814.47;;;5.85;48.78
60228;BME280;46091;46.512;6.626;2023-03-01T17:48:07;96833.19;;;5.82;48.81
60228;BME280;46091;46.512;6.626;2023-03-01T17:50:10;96831.88;;;5.78;48.84
60228;BME280;46091;46.512;6.626;2023-03-01T17:52:14;96830.56;;;5.82;48.79
60228;BME280;46091;46.512;6.626;2023-03-01T17:54:16;96826.75;;;5.76;48.76
60228;BME280;46091;46.512;6.626;2023-03-01T17:56:21;96833.81;;;5.76;48.91
60228;BME280;46091;46.512;6.626;2023-03-01T17:58:24;96833.19;;;5.82;48.73
60228;BME280;46091;46.512;6.626;2023-03-01T18:00:27;96840.22;;;5.81;48.93
60228;BME280;46091;46.512;6.626;2023-03-01T18:02:30;96837.25;;;5.76;49.05
60228;BME280;46091;46.512;6.626;2023-03-01T18:04:33;96848.91;;;5.74;49.08
60228;BME280;46091;46.512;6.626;2023-03-01T18:06:37;96848.09;;;5.73;49.09
60228;BME280;46091;46.512;6.626;2023-03-01T18:08:41;96837.94;;;5.78;49.15
60228;BME280;46091;46.512;6.626;2023-03-01T18:10:45;96841.84;;;5.74;49.13
60228;BME280;46091;46.512;6.626;2023-03-01T18:12:50;96849.72;;;5.74;49.10
60228;BME280;46091;46.512;6.626;2023-03-01T18:14:53;96852.19;;;5.76;49.15
60228;BME280;46091;46.512;6.626;2023-03-01T18:16:56;96842.84;;;5.73;49.37
60228;BME280;46091;46.512;6.626;2023-03-01T18:19:00;96842.50;;;5.76;49.40
60228;BME280;46091;46.512;6.626;2023-03-01T18:21:03;96845.81;;;5.78;49.22